createdAt,value
2023-08-17T03:54:51.361Z,100.00
2023-08-17T03:57:53.906Z,100.00
2023-08-17T04:00:56.164Z,100.00
2023-08-17T04:03:59.286Z,100.00
2023-08-17T04:07:02.050Z,100.00
2023-08-17T04:10:07.025Z,100.00
2023-08-17T04:13:09.394Z,100.00
2023-08-17T04:16:11.889Z,100.00
2023-08-17T04:19:14.303Z,100.00
2023-08-17T04:22:16.953Z,100.00
2023-08-17T04:25:20.377Z,100.00
2023-08-17T04:28:22.863Z,100.00
2023-08-17T04:31:25.182Z,100.00
2023-08-17T04:34:28.258Z,100.00
2023-08-17T04:37:30.632Z,100.00
2023-08-17T04:40:34.166Z,100.00
2023-08-17T04:43:36.673Z,100.00
2023-08-17T04:46:39.773Z,100.00
2023-08-17T04:49:41.965Z,100.00
2023-08-17T04:52:45.775Z,100.00
2023-08-17T04:55:48.044Z,100.00
2023-08-17T04:58:50.511Z,100.00
2023-08-17T05:01:55.377Z,100.00
2023-08-17T05:04:58.063Z,100.00
2023-08-17T05:08:00.516Z,100.00
2023-08-17T05:11:03.167Z,100.00
2023-08-17T05:14:05.435Z,100.00
2023-08-17T05:17:08.205Z,100.00
2023-08-17T05:20:11.013Z,100.00
2023-08-17T05:23:13.584Z,100.00
2023-08-17T05:26:16.674Z,100.00
2023-08-17T05:29:19.347Z,100.00
2023-08-17T05:32:22.107Z,100.00
2023-08-17T05:35:25.907Z,100.00
2023-08-17T05:38:28.077Z,100.00
2023-08-17T05:41:30.515Z,100.00
2023-08-17T05:44:32.710Z,100.00
2023-08-17T05:47:35.252Z,100.00
2023-08-17T05:50:37.387Z,100.00
2023-08-17T05:53:39.893Z,100.00
2023-08-17T05:56:47.425Z,100.00
2023-08-17T05:59:49.941Z,100.00
2023-08-17T06:02:52.668Z,100.00
2023-08-17T06:05:55.320Z,100.00
2023-08-17T06:08:57.499Z,100.00
2023-08-17T06:11:59.914Z,100.00
2023-08-17T06:15:06.356Z,100.00
2023-08-17T06:18:08.879Z,100.00
2023-08-17T06:21:11.054Z,100.00
2023-08-17T06:24:13.533Z,100.00
2023-08-17T06:27:16.757Z,100.00
2023-08-17T06:30:19.355Z,100.00
2023-08-17T06:33:22.577Z,100.00
2023-08-17T06:36:25.373Z,100.00
2023-08-17T06:39:27.586Z,100.00
2023-08-17T06:42:30.053Z,100.00
2023-08-17T06:45:32.980Z,100.00
2023-08-17T06:48:35.426Z,100.00
2023-08-17T06:51:37.582Z,100.00
2023-08-17T06:54:40.008Z,100.00
2023-08-17T06:57:42.414Z,100.00
2023-08-17T07:00:45.044Z,100.00
2023-08-17T07:03:47.440Z,100.00
2023-08-17T07:06:50.472Z,100.00
2023-08-17T07:09:53.067Z,100.00
2023-08-17T07:12:55.587Z,100.00
2023-08-17T07:15:57.774Z,100.00
2023-08-17T07:19:00.388Z,100.00
2023-08-17T07:22:02.953Z,100.00
2023-08-17T07:25:05.666Z,100.00
2023-08-17T07:28:07.977Z,100.00
2023-08-17T07:31:10.534Z,100.00
2023-08-17T07:34:12.751Z,100.00
2023-08-17T07:37:16.136Z,100.00
2023-08-17T07:40:18.636Z,99.19
2023-08-17T07:43:21.043Z,100.00
2023-08-17T07:46:23.281Z,99.34
2023-08-17T07:49:31.952Z,96.96
2023-08-17T07:52:35.141Z,94.56
2023-08-17T07:55:37.562Z,93.68
2023-08-17T07:58:40.055Z,92.85
2023-08-17T08:01:43.211Z,93.13
2023-08-17T08:04:46.124Z,92.64
2023-08-17T08:07:48.619Z,92.24
2023-08-17T08:10:58.914Z,92.87
2023-08-17T08:14:03.278Z,94.13
2023-08-17T08:17:06.583Z,91.01
2023-08-17T08:20:09.061Z,87.90
2023-08-17T08:23:12.502Z,86.21
2023-08-17T08:26:14.700Z,85.51
2023-08-17T08:29:17.073Z,85.21
2023-08-17T08:32:19.331Z,86.49
2023-08-17T08:35:23.412Z,83.94
2023-08-17T08:38:26.652Z,87.33
2023-08-17T08:41:30.758Z,93.00
2023-08-17T08:44:32.980Z,91.98
2023-08-17T08:47:37.776Z,90.84
2023-08-17T08:50:41.607Z,93.88
2023-08-17T08:53:46.999Z,95.10
2023-08-17T08:57:04.343Z,98.18
2023-08-17T09:00:08.692Z,99.58
2023-08-17T09:03:12.986Z,100.00
2023-08-17T09:06:20.527Z,100.00
2023-08-17T09:12:39.450Z,100.00
2023-08-17T09:15:42.913Z,100.00
2023-08-17T09:18:45.411Z,100.00
2023-08-17T09:21:50.902Z,100.00
2023-08-17T09:24:53.933Z,100.00
2023-08-17T09:27:58.294Z,100.00
2023-08-17T09:31:04.877Z,100.00
2023-08-17T09:34:07.817Z,100.00
2023-08-17T09:37:12.685Z,100.00
2023-08-17T09:40:15.673Z,97.79
2023-08-17T09:43:19.085Z,96.45
2023-08-17T09:46:22.116Z,94.10
2023-08-17T09:49:25.754Z,90.52
2023-08-17T09:52:28.308Z,94.04
2023-08-17T09:55:35.194Z,92.78
2023-08-17T09:58:38.135Z,93.05
2023-08-17T10:01:41.643Z,88.40
2023-08-17T10:04:46.232Z,88.73
2023-08-17T10:07:51.366Z,89.57
2023-08-17T10:10:57.017Z,87.86
2023-08-17T10:14:11.658Z,83.46
2023-08-17T10:17:20.347Z,87.07
2023-08-17T10:20:23.745Z,85.75
2023-08-17T10:23:28.164Z,83.74
2023-08-17T10:26:30.787Z,86.56
2023-08-17T10:29:34.383Z,84.11
2023-08-17T10:32:37.051Z,81.08
2023-08-17T10:35:40.741Z,82.98
2023-08-17T10:38:43.170Z,82.39
2023-08-17T10:41:50.018Z,80.21
2023-08-17T10:44:52.217Z,78.07
2023-08-17T10:48:10.479Z,78.22
2023-08-17T10:51:17.931Z,74.15
2023-08-17T10:54:37.369Z,76.06
2023-08-17T10:57:41.828Z,76.30
2023-08-17T11:00:45.646Z,76.20
2023-08-17T11:03:49.275Z,74.94
2023-08-17T11:07:03.394Z,77.43
2023-08-17T11:10:20.786Z,78.72
2023-08-17T11:13:25.500Z,76.95
2023-08-17T11:16:30.880Z,78.26
2023-08-17T11:19:33.279Z,79.16
2023-08-17T11:22:35.498Z,80.02
2023-08-17T11:25:39.173Z,79.28
2023-08-17T11:28:42.948Z,79.52
2023-08-17T11:31:50.997Z,72.87
2023-08-17T11:38:08.209Z,74.11
2023-08-17T11:44:24.920Z,74.34
2023-08-17T11:47:32.618Z,75.34
2023-08-17T11:50:39.866Z,74.83
2023-08-17T11:56:51.232Z,75.19
2023-08-17T11:59:56.030Z,74.07
2023-08-17T12:02:58.550Z,74.86
2023-08-17T12:06:01.000Z,74.37
2023-08-17T12:09:06.027Z,76.82
2023-08-17T12:12:08.911Z,75.63
2023-08-17T12:15:13.002Z,75.27
2023-08-17T12:18:16.946Z,76.07
2023-08-17T12:21:26.869Z,76.37
2023-08-17T12:24:31.840Z,73.19
2023-08-17T12:27:34.746Z,71.61
2023-08-17T12:30:38.550Z,71.55
2023-08-17T12:33:40.675Z,68.73
2023-08-17T12:36:46.242Z,67.56
2023-08-17T12:39:49.689Z,65.86
2023-08-17T12:42:52.219Z,63.71
2023-08-17T12:45:54.409Z,64.25
2023-08-17T12:48:56.840Z,61.55
2023-08-17T12:51:59.083Z,62.17
2023-08-17T12:55:01.557Z,64.51
2023-08-17T12:58:04.329Z,62.55
2023-08-17T13:01:06.925Z,63.18
2023-08-17T13:04:09.173Z,62.41
2023-08-17T13:07:11.631Z,66.14
2023-08-17T13:10:13.786Z,65.30
2023-08-17T13:13:16.280Z,64.26
2023-08-17T13:16:18.471Z,64.84
2023-08-17T13:19:23.635Z,63.97
2023-08-17T13:22:28.669Z,64.82
2023-08-17T13:25:31.439Z,66.98
2023-08-17T13:28:33.637Z,67.73
2023-08-17T13:31:36.234Z,69.76
2023-08-17T13:34:38.434Z,72.48
2023-08-17T13:37:42.056Z,71.72
2023-08-17T13:40:44.450Z,70.25
2023-08-17T13:43:46.899Z,68.93
2023-08-17T13:46:49.061Z,68.26
2023-08-17T13:49:51.454Z,68.84
2023-08-17T13:52:53.623Z,69.15
2023-08-17T13:55:56.088Z,71.47
2023-08-17T13:58:58.329Z,71.14
2023-08-17T14:02:01.117Z,69.43
2023-08-17T14:05:03.814Z,69.90
2023-08-17T14:08:06.225Z,74.40
2023-08-17T14:11:09.337Z,75.24
2023-08-17T14:14:11.497Z,76.62
2023-08-17T14:17:13.928Z,76.91
2023-08-17T14:20:16.538Z,76.89
2023-08-17T14:23:19.136Z,77.34
2023-08-17T14:26:21.314Z,77.87
2023-08-17T14:29:23.773Z,81.71
2023-08-17T14:32:26.187Z,81.37
2023-08-17T14:35:29.051Z,78.76
2023-08-17T14:38:37.477Z,76.88
2023-08-17T14:41:40.074Z,78.09
2023-08-17T14:44:42.323Z,78.45
2023-08-17T14:47:45.343Z,81.21
2023-08-17T14:50:51.804Z,83.50
2023-08-17T14:53:55.852Z,84.54
2023-08-17T14:56:58.195Z,84.72
2023-08-17T15:00:01.375Z,85.84
2023-08-17T15:03:03.861Z,83.68
2023-08-17T15:06:24.251Z,87.26
2023-08-17T15:09:35.028Z,90.69
2023-08-17T15:12:37.516Z,88.99
2023-08-17T15:15:40.020Z,82.71
2023-08-17T15:18:42.519Z,74.38
2023-08-17T15:21:44.711Z,74.90
2023-08-17T15:24:47.516Z,77.12
2023-08-17T15:27:49.753Z,77.30
2023-08-17T15:31:02.643Z,76.13
2023-08-17T15:34:04.983Z,72.64
2023-08-17T15:37:08.281Z,77.60
2023-08-17T15:40:11.991Z,78.94
